Monday, October 23, 2017, 1:12 PM EDT
Back to Local

KCBE, Cumberland, Greater Cumberland Regional Airport

Location: Wiley Ford, MD, United States Lat: 39.615
Local Time: 1:12 PM EDT (17:12 GMT) Lon: -78.761
Time Zone: US/Eastern Elev: 774 ft

Show me the last for .
Show Coded

Time T Td Feel RH Dir Speed Gust Alt SLP Vis Weather Sky Remarks
2017-10-23 12:46 68 59 - 72 120° 10 - 30.09 - 10 OVC040 None
2017-10-23 12:26 70 59 - 68 130° 9 - 30.10 - 10 SCT030 OVC040 None
2017-10-23 12:06 70 59 - 68 130° 10 18 30.11 - 10 OVC042 None
2017-10-23 11:46 70 59 - 68 130° 10 17 30.12 - 10 BKN046 BKN050 None
2017-10-23 11:26 68 59 - 72 130° 8 - 30.13 - 10 BKN046 None
2017-10-23 11:06 68 59 - 72 110° 3 - 30.15 - 10 BKN046 None
2017-10-23 10:46 63 59 - 88 - Calm - 30.16 - 10 SCT034 BKN043 None
2017-10-23 10:26 61 57 - 87 - Calm - 30.18 - 10 SCT035 SCT040 BKN047 None
2017-10-23 10:06 61 55 - 82 - Calm - 30.18 - 10 SCT047 None
2017-10-23 09:46 61 57 - 87 - Calm - 30.19 - 10 SCT031 None
2017-10-23 09:26 59 55 - 87 - Calm - 30.20 - 10 OVC031 None
2017-10-23 09:06 55 54 - 93 - Calm - 30.20 - 10 BKN029 None
2017-10-23 08:46 55 54 - 93 - Calm - 30.20 - 10 BKN029 None
2017-10-23 08:26 55 54 - 93 - Calm - 30.21 - 10 OVC029 None
2017-10-23 08:06 55 54 - 93 - Calm - 30.20 - 10 OVC029 None
2017-10-23 07:46 55 54 - 93 - Calm - 30.21 - 10 BKN029 OVC045 None
2017-10-23 07:26 55 54 - 93 - Calm - 30.21 - 10 SCT031 BKN045 None
2017-10-23 07:06 54 54 - 100 - Calm - 30.22 - 10 SCT043 None
2017-10-23 06:46 54 54 - 100 320° 5 - 30.22 - 7 SCT043 None
2017-10-23 06:26 54 54 - 100 - Calm - 30.23 - 10 SCT043 None
2017-10-23 06:06 54 54 - 100 - Calm - 30.24 - 10 CLR None
2017-10-23 05:46 55 54 - 93 320° 3 - 30.24 - 10 CLR None
2017-10-23 05:26 55 54 - 93 340° 5 - 30.24 - 10 CLR None
2017-10-23 05:06 55 54 - 93 330° 3 - 30.24 - 10 CLR None
2017-10-23 04:46 55 54 - 93 330° 3 - 30.24 - 10 CLR None
2017-10-23 04:26 55 54 - 93 320° 3 - 30.25 - 10 CLR None
2017-10-23 04:06 55 54 - 93 320° 3 - 30.25 - 10 CLR None
2017-10-23 03:46 57 54 - 87 310° 6 - 30.26 - 10 CLR None
2017-10-23 03:26 55 54 - 93 330° 3 - 30.25 - 10 CLR None
2017-10-23 03:06 59 55 - 87 - Calm - 30.26 - 10 CLR None
2017-10-23 02:46 59 54 - 82 - Calm - 30.26 - 10 CLR None
2017-10-23 02:26 59 55 - 87 - Calm - 30.27 - 10 CLR None
2017-10-23 02:06 59 54 - 82 230° 3 - 30.27 - 10 CLR None
2017-10-23 01:46 61 55 - 82 220° 3 - 30.27 - 10 CLR None
2017-10-23 01:26 59 55 - 87 220° 5 - 30.27 - 10 CLR None
2017-10-23 01:06 61 55 - 82 200° 5 - 30.27 - 10 CLR None
2017-10-23 00:46 61 55 - 82 210° 6 - 30.28 - 10 CLR None
2017-10-23 00:26 61 55 - 82 200° 5 - 30.28 - 10 CLR None
2017-10-23 00:06 63 55 - 77 210° 5 - 30.29 - 10 CLR None
2017-10-22 23:46 61 54 - 77 - Calm - 30.30 - 10 CLR None
2017-10-22 23:26 63 54 - 72 220° 3 - 30.30 - 10 CLR None
2017-10-22 23:06 63 54 - 72 210° 3 - 30.30 - 10 CLR None
2017-10-22 22:46 63 54 - 72 - Calm - 30.30 - 10 CLR None
2017-10-22 22:26 64 54 - 67 - Calm - 30.31 - 10 CLR None
2017-10-22 22:06 64 54 - 67 - Calm - 30.30 - 10 CLR None
2017-10-22 21:46 66 54 - 63 150° 3 - 30.30 - 10 CLR None
2017-10-22 21:26 66 54 - 63 150° 6 - 30.30 - 10 CLR None
2017-10-22 21:06 64 54 - 67 160° 5 - 30.30 - 10 CLR None
2017-10-22 20:46 66 54 - 63 180° 6 - 30.30 - 10 CLR None
2017-10-22 20:26 66 54 - 63 190° 5 - 30.30 - 10 CLR None
2017-10-22 20:06 68 54 - 60 190° 6 - 30.30 - 10 CLR None
2017-10-22 19:46 68 54 - 60 160° 3 - 30.30 - 10 CLR None
2017-10-22 19:26 70 54 - 56 180° 3 - 30.30 - 10 CLR None
2017-10-22 19:06 70 54 - 56 160° 3 - 30.29 - 10 CLR None
2017-10-22 18:46 70 54 - 56 140° 3 - 30.29 - 10 CLR None
2017-10-22 18:26 72 54 76 53 150° 5 - 30.28 - 10 CLR None
2017-10-22 18:06 72 54 76 53 150° 7 - 30.28 - 10 CLR None
2017-10-22 17:46 73 54 77 49 120° 8 - 30.27 - 10 CLR None
2017-10-22 17:26 75 52 77 44 120° 10 - 30.27 - 10 CLR None
2017-10-22 17:06 75 52 77 44 110° 7 - 30.27 - 10 CLR None
2017-10-22 16:46 77 52 78 41 110° 12 - 30.27 - 10 CLR None
2017-10-22 16:26 79 52 - 39 110° 10 - 30.28 - 10 CLR None
2017-10-22 16:06 79 48 - 34 150° 8 - 30.28 - 10 CLR None
2017-10-22 15:46 79 52 - 39 130° 6 - 30.28 - 10 CLR None
2017-10-22 15:26 77 52 78 41 - Calm - 30.29 - 10 CLR None
2017-10-22 15:06 77 52 78 41 290° 3 - 30.30 - 10 CLR None
2017-10-22 14:46 77 54 78 44 240° 3 - 30.30 - 10 CLR None
2017-10-22 14:26 75 54 77 47 - Calm - 30.31 - 10 CLR None
2017-10-22 14:06 73 52 76 46 220° 5 - 30.32 - 10 CLR None
2017-10-22 13:46 72 52 76 49 - Calm - 30.33 - 10 CLR None
2017-10-22 13:26 72 52 76 49 190° 3 - 30.34 - 10 CLR None

Support USWX by starting your Amazon purchase here.